Time;durP1;ratioP1;P1;durP2;ratioP2;P2;SDS_P1;SDS_P2;PMS_P1;PMS_P2;Temp;Humidity;BMP_temperature;BMP_pressure;BME280_temperature;BME280_humidity;BME280_pressure;Samples;Min_cycle;Max_cycle;Signal;HPM_P1;HPM_P2
2024/01/31 00:02:01;;;;;;;1.00;0.60;;;21.90;44.60;;;;;;10455306;28;20048;-45
2024/01/31 00:07:02;;;;;;;0.70;0.60;;;21.90;44.70;;;;;;10456483;28;20135;-47
2024/01/31 00:12:04;;;;;;;1.92;0.70;;;21.70;44.80;;;;;;10465007;28;20510;-48
2024/01/31 00:17:07;;;;;;;0.90;0.60;;;21.80;44.80;;;;;;10461618;28;20033;-45
2024/01/31 00:22:09;;;;;;;0.80;0.70;;;21.70;44.70;;;;;;10462418;28;20052;-48
2024/01/31 00:27:10;;;;;;;1.35;0.60;;;21.70;44.80;;;;;;10467836;28;20041;-45
2024/01/31 00:32:13;;;;;;;0.57;0.52;;;21.70;44.70;;;;;;10452876;28;20068;-46
2024/01/31 00:37:15;;;;;;;0.60;0.50;;;21.60;44.80;;;;;;10456555;28;20045;-48
2024/01/31 00:42:17;;;;;;;1.35;0.60;;;21.60;44.70;;;;;;10460493;28;20885;-44
2024/01/31 00:47:20;;;;;;;0.57;0.43;;;21.50;44.80;;;;;;10463551;28;20045;-46
2024/01/31 00:52:21;;;;;;;1.90;0.70;;;21.50;44.80;;;;;;10461376;28;20120;-49
2024/01/31 00:57:23;;;;;;;1.17;0.68;;;21.50;44.80;;;;;;10460136;28;20039;-48
2024/01/31 01:02:26;;;;;;;0.85;0.60;;;21.50;44.80;;;;;;10462490;28;20498;-48
2024/01/31 01:07:27;;;;;;;0.90;0.70;;;21.40;44.80;;;;;;10467236;28;20148;-46
2024/01/31 01:12:30;;;;;;;1.50;0.80;;;21.30;44.80;;;;;;10458827;28;20111;-46
2024/01/31 01:17:33;;;;;;;1.00;0.73;;;21.30;44.80;;;;;;10459238;28;20040;-46
2024/01/31 01:22:35;;;;;;;0.60;0.50;;;21.30;44.90;;;;;;10459613;28;20128;-45
2024/01/31 01:27:36;;;;;;;1.00;0.60;;;21.20;44.90;;;;;;10459261;28;20123;-46
2024/01/31 01:32:39;;;;;;;1.08;0.70;;;21.30;44.80;;;;;;10457773;28;20060;-48
2024/01/31 01:37:41;;;;;;;1.15;0.65;;;21.20;44.80;;;;;;10454304;28;20048;-46
2024/01/31 01:42:42;;;;;;;1.52;0.60;;;21.20;44.80;;;;;;10454945;28;20045;-46
2024/01/31 01:47:48;;;;;;;0.90;0.50;;;21.20;44.80;;;;;;10448057;28;20048;-46
2024/01/31 01:52:49;;;;;;;1.40;0.50;;;21.10;44.80;;;;;;10455062;28;20087;-45
2024/01/31 01:57:51;;;;;;;0.50;0.50;;;21.10;45.00;;;;;;10454118;28;20524;-47
2024/01/31 02:02:54;;;;;;;0.77;0.70;;;21.00;44.90;;;;;;10454912;28;20562;-43
2024/01/31 02:07:56;;;;;;;0.98;0.57;;;21.10;44.90;;;;;;10456705;28;20132;-45
2024/01/31 02:12:57;;;;;;;0.80;0.50;;;21.00;44.80;;;;;;10452167;28;20105;-46
2024/01/31 02:18:00;;;;;;;1.23;0.65;;;21.00;44.80;;;;;;10454699;28;20131;-48
2024/01/31 02:23:05;;;;;;;1.27;0.60;;;20.90;44.90;;;;;;10456950;28;20067;-48
2024/01/31 02:28:07;;;;;;;0.93;0.55;;;20.90;44.80;;;;;;10458504;28;20049;-44
2024/01/31 02:33:08;;;;;;;1.02;0.65;;;20.90;44.90;;;;;;10461706;28;20041;-45
2024/01/31 02:38:11;;;;;;;1.30;0.50;;;20.80;45.00;;;;;;10461195;28;20044;-46
2024/01/31 02:43:13;;;;;;;0.65;0.50;;;20.80;45.10;;;;;;10463881;28;20040;-46
2024/01/31 02:48:15;;;;;;;0.52;0.40;;;20.90;44.90;;;;;;10465688;28;20048;-45
2024/01/31 02:53:18;;;;;;;0.70;0.40;;;20.80;44.80;;;;;;10465945;28;20045;-46
2024/01/31 02:58:19;;;;;;;1.02;0.50;;;20.80;44.90;;;;;;10463998;28;20048;-47
2024/01/31 03:03:21;;;;;;;1.25;0.60;;;20.80;44.90;;;;;;10460327;28;20144;-46
2024/01/31 03:08:24;;;;;;;1.00;0.52;;;20.70;44.90;;;;;;10456322;28;20499;-46
2024/01/31 03:13:25;;;;;;;1.20;0.47;;;20.80;44.70;;;;;;10459427;28;20093;-46
2024/01/31 03:18:27;;;;;;;0.93;0.47;;;20.70;44.80;;;;;;10465398;28;20068;-46
2024/01/31 03:23:30;;;;;;;1.10;0.50;;;20.60;44.80;;;;;;10458341;28;20072;-49
2024/01/31 03:28:32;;;;;;;1.88;0.80;;;20.60;44.90;;;;;;10467096;28;20063;-46
2024/01/31 03:33:34;;;;;;;1.55;0.60;;;20.60;44.90;;;;;;10468826;28;20044;-46
2024/01/31 03:38:36;;;;;;;0.77;0.50;;;20.50;44.90;;;;;;10459629;28;20044;-48
2024/01/31 03:43:38;;;;;;;1.10;0.50;;;20.50;45.00;;;;;;10458814;28;20055;-47
2024/01/31 03:48:40;;;;;;;1.27;0.57;;;20.40;45.00;;;;;;10464985;28;20459;-46
2024/01/31 03:53:43;;;;;;;0.65;0.47;;;20.40;45.00;;;;;;10460184;28;20055;-48
2024/01/31 03:58:44;;;;;;;1.70;0.60;;;20.40;45.10;;;;;;10460582;28;20044;-46
2024/01/31 04:03:46;;;;;;;1.60;0.70;;;20.40;45.00;;;;;;10470019;28;20080;-47
2024/01/31 04:08:50;;;;;;;2.33;0.50;;;20.70;45.00;;;;;;10468967;28;20084;-48
2024/01/31 04:13:52;;;;;;;4.43;0.63;;;21.10;44.70;;;;;;10464504;28;20071;-46
2024/01/31 04:18:54;;;;;;;0.70;0.50;;;21.30;44.80;;;;;;10454556;28;20132;-46
2024/01/31 04:23:56;;;;;;;2.25;0.50;;;21.50;45.10;;;;;;10463351;28;20048;-46
2024/01/31 04:28:58;;;;;;;1.95;0.60;;;21.60;45.30;;;;;;10463224;28;20139;-47
2024/01/31 04:34:00;;;;;;;2.15;1.05;;;22.10;44.30;;;;;;10461356;28;20045;-47
2024/01/31 04:39:04;;;;;;;29.38;7.28;;;22.60;43.80;;;;;;10460017;28;20044;-46
2024/01/31 04:44:05;;;;;;;23.95;5.72;;;22.70;44.70;;;;;;10467135;28;20049;-46
2024/01/31 04:49:07;;;;;;;22.60;5.28;;;23.00;43.80;;;;;;10461866;28;20419;-46
2024/01/31 04:54:10;;;;;;;16.38;5.15;;;23.00;43.60;;;;;;10452189;28;20054;-48
2024/01/31 04:59:11;;;;;;;23.15;5.05;;;23.20;43.40;;;;;;10458447;28;20051;-46
2024/01/31 05:04:13;;;;;;;11.80;4.78;;;23.30;43.10;;;;;;10461206;28;20494;-46
2024/01/31 05:09:16;;;;;;;9.88;3.85;;;23.40;42.80;;;;;;10454365;28;20502;-48
2024/01/31 05:14:18;;;;;;;14.00;3.85;;;23.30;42.70;;;;;;10462061;28;20056;-47
2024/01/31 05:19:19;;;;;;;10.73;3.70;;;23.20;42.90;;;;;;10466384;28;20053;-47
2024/01/31 05:24:22;;;;;;;10.48;3.83;;;23.50;42.60;;;;;;10463494;28;20083;-45
2024/01/31 05:29:24;;;;;;;8.93;3.13;;;23.50;42.70;;;;;;10456918;28;20055;-46
2024/01/31 05:34:26;;;;;;;6.93;2.90;;;23.70;42.30;;;;;;10450163;28;20049;-45
2024/01/31 05:39:29;;;;;;;7.30;3.17;;;23.70;42.20;;;;;;10462850;28;20059;-45
2024/01/31 05:44:31;;;;;;;7.50;2.83;;;23.40;42.90;;;;;;10453106;28;20513;-46
2024/01/31 05:49:32;;;;;;;6.30;2.70;;;23.70;42.40;;;;;;10454584;28;20489;-49
2024/01/31 05:54:35;;;;;;;82.78;9.38;;;24.00;42.10;;;;;;10456744;28;20139;-45
2024/01/31 05:59:40;;;;;;;54.80;7.65;;;23.80;43.40;;;;;;10464411;28;20040;-47
2024/01/31 06:04:42;;;;;;;31.70;5.93;;;23.70;43.90;;;;;;10456249;28;20048;-48
2024/01/31 06:09:45;;;;;;;59.40;11.05;;;23.50;44.20;;;;;;10448181;28;20040;-46
2024/01/31 06:14:47;;;;;;;188.75;38.97;;;23.50;44.60;;;;;;10451841;28;20127;-47
2024/01/31 06:19:48;;;;;;;131.75;29.35;;;23.40;46.70;;;;;;10459571;28;20498;-47
2024/01/31 06:24:51;;;;;;;100.70;25.67;;;23.10;46.60;;;;;;10458010;28;20052;-46
2024/01/31 06:29:53;;;;;;;82.40;20.98;;;23.00;46.60;;;;;;10455056;28;20048;-46
2024/01/31 06:34:55;;;;;;;92.93;22.65;;;22.80;46.80;;;;;;10454813;28;20052;-46
2024/01/31 06:39:58;;;;;;;72.80;18.35;;;22.70;46.70;;;;;;10456320;28;20048;-44
2024/01/31 06:44:59;;;;;;;77.40;18.25;;;22.50;46.70;;;;;;10452270;28;20153;-45
2024/01/31 06:50:01;;;;;;;66.03;16.67;;;22.50;46.90;;;;;;10446100;28;20140;-50
2024/01/31 06:55:05;;;;;;;61.92;16.25;;;22.40;47.00;;;;;;10451777;28;20156;-44
2024/01/31 07:00:08;;;;;;;61.42;14.48;;;22.40;46.70;;;;;;10456999;28;20095;-45
2024/01/31 07:05:10;;;;;;;54.53;13.93;;;22.40;46.50;;;;;;10450510;28;20079;-46
2024/01/31 07:10:13;;;;;;;45.90;13.65;;;22.40;46.30;;;;;;10454152;28;20518;-47
2024/01/31 07:15:17;;;;;;;53.38;12.45;;;22.40;46.60;;;;;;10471672;28;20119;-47
2024/01/31 07:20:18;;;;;;;37.83;10.77;;;22.40;45.90;;;;;;10467942;28;20040;-47
2024/01/31 07:25:21;;;;;;;33.50;10.50;;;22.40;45.10;;;;;;10451018;28;20044;-47
2024/01/31 07:30:23;;;;;;;33.42;10.73;;;22.30;44.80;;;;;;10456686;28;20128;-47
2024/01/31 07:35:25;;;;;;;31.58;9.95;;;22.10;45.50;;;;;;10460710;28;20350;-46
2024/01/31 07:40:28;;;;;;;27.90;9.43;;;22.10;45.00;;;;;;10454483;28;20045;-46
2024/01/31 07:45:30;;;;;;;24.67;8.75;;;22.00;45.10;;;;;;10459399;28;20051;-46
2024/01/31 07:50:32;;;;;;;25.65;8.85;;;22.00;45.00;;;;;;10463821;28;20134;-48
2024/01/31 07:55:35;;;;;;;23.08;7.68;;;22.00;45.20;;;;;;10464269;28;20121;-48
2024/01/31 08:00:37;;;;;;;24.10;7.88;;;21.90;44.90;;;;;;10458304;28;20048;-47
2024/01/31 08:05:39;;;;;;;28.55;7.60;;;21.90;44.50;;;;;;10455192;28;20111;-47
2024/01/31 08:10:42;;;;;;;19.35;6.72;;;22.00;44.50;;;;;;10460647;28;20059;-49
2024/01/31 08:15:43;;;;;;;18.63;7.28;;;22.00;44.00;;;;;;10457504;28;20506;-46
2024/01/31 08:20:45;;;;;;;19.95;6.38;;;21.90;44.00;;;;;;10454983;28;20047;-48
2024/01/31 08:25:48;;;;;;;20.70;6.28;;;21.80;43.90;;;;;;10461054;28;20116;-45
2024/01/31 08:30:50;;;;;;;16.83;5.55;;;21.80;43.80;;;;;;10469908;28;20533;-46
2024/01/31 08:35:51;;;;;;;14.27;5.57;;;21.90;43.60;;;;;;10461296;28;20124;-48
2024/01/31 08:40:54;;;;;;;14.00;5.65;;;21.80;44.10;;;;;;10456572;28;20086;-47
2024/01/31 08:45:56;;;;;;;12.88;5.03;;;21.80;43.90;;;;;;10457357;28;20065;-48
2024/01/31 08:50:58;;;;;;;16.95;5.47;;;21.80;43.60;;;;;;10459064;28;20042;-47
2024/01/31 08:56:01;;;;;;;14.43;5.25;;;21.80;43.30;;;;;;10450431;28;20048;-49
2024/01/31 09:01:04;;;;;;;14.20;5.20;;;21.80;43.90;;;;;;10457326;28;20049;-47
2024/01/31 09:06:06;;;;;;;13.07;5.13;;;21.80;43.50;;;;;;10466148;28;20073;-48
2024/01/31 09:11:09;;;;;;;11.80;4.63;;;21.80;42.80;;;;;;10462847;28;20126;-49
2024/01/31 09:16:10;;;;;;;11.25;4.15;;;21.80;42.30;;;;;;10456846;28;20049;-48
2024/01/31 09:21:20;;;;;;;12.60;4.30;;;21.80;42.30;;;;;;10451966;28;20083;-46
2024/01/31 09:26:23;;;;;;;10.82;4.03;;;21.80;42.80;;;;;;10457686;28;20040;-46
2024/01/31 09:31:25;;;;;;;10.18;4.30;;;21.80;42.20;;;;;;10456657;28;20131;-49
2024/01/31 09:36:27;;;;;;;9.30;3.58;;;21.70;42.50;;;;;;10454474;28;20040;-46
2024/01/31 09:41:33;;;;;;;10.30;3.03;;;21.80;42.30;;;;;;10462082;28;20055;-50
2024/01/31 09:46:35;;;;;;;8.40;3.38;;;21.90;41.00;;;;;;10465501;28;20072;-48
2024/01/31 09:51:37;;;;;;;8.27;3.22;;;21.90;41.80;;;;;;10459810;28;20578;-48
2024/01/31 09:56:41;;;;;;;10.40;3.22;;;21.80;41.70;;;;;;10456663;28;20159;-48
2024/01/31 10:01:42;;;;;;;8.43;3.05;;;21.70;41.50;;;;;;10444856;28;20522;-48
2024/01/31 10:06:44;;;;;;;7.53;2.75;;;21.70;41.60;;;;;;10456147;28;20083;-47
2024/01/31 10:11:47;;;;;;;9.68;3.10;;;21.70;41.00;;;;;;10455741;28;20050;-49
2024/01/31 10:16:49;;;;;;;5.85;2.25;;;21.90;40.30;;;;;;10460774;28;20055;-48
2024/01/31 10:21:51;;;;;;;7.10;2.45;;;21.70;39.90;;;;;;10471531;28;20139;-46
2024/01/31 10:26:54;;;;;;;6.80;2.47;;;21.70;40.10;;;;;;10457775;28;20103;-49
2024/01/31 10:31:55;;;;;;;6.85;2.22;;;21.70;39.40;;;;;;10461724;28;20132;-47
2024/01/31 10:36:57;;;;;;;6.82;2.40;;;21.70;39.80;;;;;;10450121;28;20055;-48
2024/01/31 10:42:00;;;;;;;8.07;2.65;;;21.70;39.50;;;;;;10457216;28;20410;-47
2024/01/31 10:47:01;;;;;;;5.80;2.13;;;21.80;39.10;;;;;;10466684;28;20139;-47
2024/01/31 10:52:04;;;;;;;4.95;1.98;;;21.80;38.80;;;;;;10468780;28;20059;-48
2024/01/31 10:57:07;;;;;;;5.13;2.10;;;21.80;38.70;;;;;;10476314;28;20563;-49
2024/01/31 11:02:13;;;;;;;7.47;2.10;;;21.70;38.40;;;;;;10471286;28;20057;-47
2024/01/31 11:07:17;;;;;;;7.90;1.80;;;21.80;38.40;;;;;;10471946;28;20083;-49
2024/01/31 11:12:20;;;;;;;6.32;1.70;;;21.70;37.80;;;;;;10465574;28;20617;-48
2024/01/31 11:17:22;;;;;;;4.25;1.40;;;21.70;37.40;;;;;;10456785;28;20140;-47
2024/01/31 11:22:24;;;;;;;5.70;1.70;;;21.70;37.60;;;;;;10462126;28;20045;-47
2024/01/31 11:27:27;;;;;;;5.03;1.55;;;21.60;38.20;;;;;;10472049;28;20048;-48
2024/01/31 11:32:29;;;;;;;3.38;1.27;;;21.70;37.80;;;;;;10471459;28;20079;-49
2024/01/31 11:37:31;;;;;;;3.97;1.50;;;21.70;37.20;;;;;;10467951;28;20414;-47
2024/01/31 11:42:34;;;;;;;3.78;1.33;;;21.70;36.80;;;;;;10463056;28;20041;-46
2024/01/31 11:47:35;;;;;;;2.55;1.10;;;21.60;37.10;;;;;;10470354;28;20494;-48
2024/01/31 11:52:38;;;;;;;2.85;1.15;;;21.60;36.90;;;;;;10455749;28;20075;-48
2024/01/31 11:57:41;;;;;;;3.65;1.20;;;21.60;37.10;;;;;;10454872;28;20057;-48
2024/01/31 12:02:53;;;;;;;3.47;1.10;;;21.70;37.00;;;;;;10468257;28;20051;-51
2024/01/31 12:07:56;;;;;;;2.17;1.00;;;21.60;36.80;;;;;;10472697;28;20552;-48
2024/01/31 12:13:00;;;;;;;2.50;1.10;;;21.60;37.50;;;;;;10467828;28;20068;-48
2024/01/31 12:18:02;;;;;;;3.53;1.00;;;21.60;36.90;;;;;;10463075;28;20562;-47
2024/01/31 12:23:04;;;;;;;3.60;1.13;;;21.50;36.50;;;;;;10469721;28;20048;-48
2024/01/31 12:28:07;;;;;;;2.35;1.00;;;21.40;37.60;;;;;;10461038;28;20068;-47
2024/01/31 12:33:08;;;;;;;4.50;1.27;;;21.50;37.00;;;;;;10458543;28;20502;-50
2024/01/31 12:38:10;;;;;;;2.38;0.82;;;21.50;36.70;;;;;;10462585;28;20132;-48
2024/01/31 12:43:13;;;;;;;1.35;0.73;;;21.50;36.80;;;;;;10475041;28;20053;-47
2024/01/31 12:48:15;;;;;;;2.30;0.90;;;21.50;37.20;;;;;;10463655;28;20041;-49
2024/01/31 12:53:17;;;;;;;2.63;1.00;;;21.50;37.00;;;;;;10466825;28;20072;-47
2024/01/31 12:58:20;;;;;;;2.85;1.05;;;21.40;36.90;;;;;;10457580;28;20422;-48
2024/01/31 13:03:21;;;;;;;2.17;1.30;;;21.50;36.60;;;;;;10464829;28;20134;-48
2024/01/31 13:08:23;;;;;;;1.70;1.00;;;21.50;36.30;;;;;;10448867;28;20048;-48
2024/01/31 13:13:26;;;;;;;2.03;0.75;;;21.50;36.30;;;;;;10454532;28;20053;-48
2024/01/31 13:18:28;;;;;;;2.03;0.90;;;21.50;37.10;;;;;;10464179;28;20049;-48
2024/01/31 13:23:29;;;;;;;1.58;0.80;;;21.50;36.70;;;;;;10469338;28;20053;-47
2024/01/31 13:28:32;;;;;;;2.83;0.95;;;21.50;36.40;;;;;;10463317;28;20076;-45
2024/01/31 13:33:34;;;;;;;2.17;0.95;;;21.50;36.20;;;;;;10453913;28;20417;-44
2024/01/31 13:38:36;;;;;;;3.60;1.00;;;21.50;36.00;;;;;;10462625;28;20049;-44
2024/01/31 13:43:40;;;;;;;1.65;0.88;;;21.40;36.20;;;;;;10455229;28;20055;-45
2024/01/31 13:48:41;;;;;;;3.42;0.80;;;21.50;36.40;;;;;;10452717;28;20041;-48
2024/01/31 13:53:43;;;;;;;1.90;0.90;;;21.90;36.00;;;;;;10456803;28;20057;-44
2024/01/31 13:58:46;;;;;;;2.65;0.82;;;21.90;36.20;;;;;;10471355;28;20469;-44
2024/01/31 14:03:48;;;;;;;1.65;1.00;;;21.80;36.60;;;;;;10465574;28;20144;-46
2024/01/31 14:08:49;;;;;;;1.35;0.95;;;21.70;36.60;;;;;;10458991;28;20045;-46
2024/01/31 14:13:52;;;;;;;4.07;0.95;;;21.60;36.40;;;;;;10453473;28;20513;-47
2024/01/31 14:18:54;;;;;;;1.13;0.93;;;21.50;36.60;;;;;;10461885;28;20071;-47
2024/01/31 14:23:55;;;;;;;2.67;0.98;;;21.60;36.40;;;;;;10451832;28;20139;-47
2024/01/31 14:28:58;;;;;;;1.40;0.85;;;21.80;35.70;;;;;;10452093;28;20061;-47
2024/01/31 14:34:00;;;;;;;1.92;0.82;;;21.80;35.50;;;;;;10463272;28;20228;-47
2024/01/31 14:39:02;;;;;;;2.53;0.70;;;21.90;35.80;;;;;;10468310;28;20051;-47
2024/01/31 14:44:05;;;;;;;1.38;0.77;;;21.80;36.30;;;;;;10459042;28;20072;-47
2024/01/31 14:49:10;;;;;;;1.58;0.90;;;22.00;35.70;;;;;;10452832;28;20049;-46
2024/01/31 14:54:12;;;;;;;1.50;0.80;;;22.30;35.50;;;;;;10456937;28;20053;-46
2024/01/31 14:59:15;;;;;;;1.50;0.90;;;22.30;35.00;;;;;;10450085;28;20494;-47
2024/01/31 15:04:16;;;;;;;2.38;0.98;;;22.50;34.50;;;;;;10446211;28;20132;-46
2024/01/31 15:09:18;;;;;;;1.88;0.82;;;22.70;35.20;;;;;;10451198;28;20091;-47
2024/01/31 15:14:21;;;;;;;1.20;0.88;;;22.80;35.10;;;;;;10461683;28;20057;-48
2024/01/31 15:19:25;;;;;;;1.98;0.90;;;22.90;34.90;;;;;;10461580;28;20431;-47
2024/01/31 15:24:26;;;;;;;1.00;0.90;;;23.00;35.00;;;;;;10459627;28;20045;-52
2024/01/31 15:29:29;;;;;;;1.58;0.90;;;23.10;34.40;;;;;;10445015;28;20144;-52
2024/01/31 15:34:31;;;;;;;1.52;0.90;;;23.20;34.60;;;;;;10458849;28;20041;-47
2024/01/31 15:39:32;;;;;;;1.63;0.90;;;23.20;34.70;;;;;;10453464;28;20037;-49
2024/01/31 15:44:36;;;;;;;0.88;0.80;;;23.30;34.60;;;;;;10456118;28;20065;-47
2024/01/31 15:49:37;;;;;;;1.38;0.90;;;23.30;34.80;;;;;;10461522;28;20147;-51
2024/01/31 15:54:39;;;;;;;7.70;1.60;;;23.40;34.50;;;;;;10460026;28;20045;-52
2024/01/31 15:59:42;;;;;;;29.42;12.60;;;23.50;34.40;;;;;;10463071;28;20068;-48
2024/01/31 16:04:43;;;;;;;28.83;12.98;;;23.50;35.40;;;;;;10452232;28;20449;-52
2024/01/31 16:09:45;;;;;;;43.65;16.83;;;23.60;36.20;;;;;;10455892;28;20124;-52
2024/01/31 16:14:48;;;;;;;27.30;11.65;;;23.50;37.80;;;;;;10463709;28;20049;-50
2024/01/31 16:19:50;;;;;;;23.48;8.70;;;23.30;37.30;;;;;;10457570;28;20495;-47
2024/01/31 16:24:51;;;;;;;16.27;7.28;;;23.60;35.80;;;;;;10462188;28;20048;-45
2024/01/31 16:29:54;;;;;;;10.23;5.00;;;23.30;35.40;;;;;;10461891;28;20056;-46
2024/01/31 16:34:56;;;;;;;10.55;4.63;;;23.40;34.70;;;;;;10466822;28;20128;-44
2024/01/31 16:39:59;;;;;;;7.82;3.53;;;23.40;34.30;;;;;;10455445;28;20417;-44
2024/01/31 16:45:02;;;;;;;10.73;3.33;;;23.50;33.90;;;;;;10449052;28;20127;-46
2024/01/31 16:50:04;;;;;;;6.65;3.17;;;23.40;33.70;;;;;;10460344;28;20132;-45
2024/01/31 16:55:06;;;;;;;7.05;2.92;;;23.40;33.70;;;;;;10457402;28;20045;-45
2024/01/31 17:00:11;;;;;;;6.65;3.05;;;23.50;34.30;;;;;;10453105;28;20148;-54
2024/01/31 17:05:13;;;;;;;6.80;2.85;;;23.70;34.60;;;;;;10462570;28;20171;-44
2024/01/31 17:10:15;;;;;;;6.40;2.78;;;23.60;34.80;;;;;;10471356;28;20040;-43
2024/01/31 17:15:18;;;;;;;6.00;2.70;;;23.70;34.70;;;;;;10457058;28;20175;-45
2024/01/31 17:20:20;;;;;;;6.55;2.90;;;23.80;34.90;;;;;;10448332;28;20067;-44
2024/01/31 17:25:23;;;;;;;6.00;2.85;;;23.70;35.00;;;;;;10450061;28;20131;-45
2024/01/31 17:30:26;;;;;;;5.13;2.25;;;23.80;34.90;;;;;;10452762;28;20051;-44
2024/01/31 17:35:28;;;;;;;7.15;2.35;;;23.80;34.90;;;;;;10452798;28;20052;-45
2024/01/31 17:40:29;;;;;;;6.95;2.30;;;23.80;34.60;;;;;;10458723;28;20049;-49
2024/01/31 17:45:32;;;;;;;4.53;2.15;;;24.00;34.60;;;;;;10457939;28;20129;-45
2024/01/31 17:50:34;;;;;;;8.10;2.42;;;24.00;34.60;;;;;;10455201;28;20048;-48
2024/01/31 17:55:36;;;;;;;17.92;3.90;;;24.00;34.60;;;;;;10451879;28;20040;-50
2024/01/31 18:00:39;;;;;;;18.30;6.10;;;24.00;34.70;;;;;;10448866;28;20136;-44
2024/01/31 18:05:40;;;;;;;51.85;5.90;;;24.00;34.90;;;;;;10455498;28;20540;-54
2024/01/31 18:10:42;;;;;;;19.80;4.10;;;24.00;37.30;;;;;;10458540;28;20057;-48
2024/01/31 18:15:45;;;;;;;10.82;3.15;;;24.00;38.90;;;;;;10452557;28;20422;-49
2024/01/31 18:20:47;;;;;;;12.27;2.83;;;24.00;38.50;;;;;;10452273;28;20049;-49
2024/01/31 18:25:48;;;;;;;9.82;2.60;;;24.00;38.00;;;;;;10457702;28;20140;-46
2024/01/31 18:30:51;;;;;;;10.25;2.47;;;24.10;36.70;;;;;;10455407;28;20510;-47
2024/01/31 18:35:53;;;;;;;7.88;2.25;;;24.80;36.80;;;;;;10447087;28;20140;-48
2024/01/31 18:40:55;;;;;;;5.70;2.08;;;24.90;37.30;;;;;;10450630;28;20512;-49
2024/01/31 18:45:58;;;;;;;7.93;2.22;;;24.80;37.70;;;;;;10455383;28;20049;-46
2024/01/31 18:50:59;;;;;;;8.73;2.15;;;24.30;38.70;;;;;;10457272;28;20048;-48
2024/01/31 18:56:01;;;;;;;11.40;2.53;;;24.20;38.60;;;;;;10456122;28;20052;-47
2024/01/31 19:01:04;;;;;;;7.57;2.15;;;24.30;38.50;;;;;;10454494;28;20041;-48
2024/01/31 19:06:06;;;;;;;11.05;2.53;;;24.50;38.60;;;;;;10459134;28;20045;-50
2024/01/31 19:11:07;;;;;;;10.13;2.47;;;24.10;39.70;;;;;;10456291;28;20044;-47
2024/01/31 19:16:10;;;;;;;10.93;1.95;;;24.10;40.20;;;;;;10455412;28;20148;-49
2024/01/31 19:21:13;;;;;;;7.25;1.92;;;24.90;37.70;;;;;;10460253;28;20041;-51
2024/01/31 19:26:14;;;;;;;15.25;2.25;;;25.00;37.50;;;;;;10457110;28;20045;-47
2024/01/31 19:31:17;;;;;;;7.50;2.00;;;24.30;39.40;;;;;;10454505;28;20055;-48
2024/01/31 19:36:21;;;;;;;10.45;2.33;;;24.10;40.00;;;;;;10465126;28;20076;-48
2024/01/31 19:41:25;;;;;;;9.25;1.90;;;24.00;40.30;;;;;;10467559;28;20491;-47
2024/01/31 19:46:28;;;;;;;6.00;2.05;;;23.90;40.60;;;;;;10464363;28;20118;-49
2024/01/31 19:51:30;;;;;;;5.20;1.77;;;23.90;40.60;;;;;;10455271;28;20049;-49
2024/01/31 19:56:31;;;;;;;5.35;1.90;;;24.30;39.90;;;;;;10454647;28;20049;-46
2024/01/31 20:01:34;;;;;;;8.13;1.90;;;24.40;39.50;;;;;;10458787;28;20570;-50
2024/01/31 20:06:36;;;;;;;12.50;2.60;;;24.40;39.80;;;;;;10463330;28;20044;-48
2024/01/31 20:11:37;;;;;;;6.25;2.70;;;24.40;39.80;;;;;;10457108;28;20679;-49
2024/01/31 20:16:40;;;;;;;4.00;1.73;;;24.40;38.00;;;;;;10463702;28;20508;-48
2024/01/31 20:21:43;;;;;;;10.30;2.20;;;24.50;38.50;;;;;;10460955;28;20049;-50
2024/01/31 20:26:44;;;;;;;6.78;2.03;;;24.50;38.70;;;;;;10454354;28;20421;-49
2024/01/31 20:31:47;;;;;;;5.72;2.28;;;24.20;38.30;;;;;;10448769;28;20126;-49
2024/01/31 20:36:49;;;;;;;7.43;2.60;;;24.00;38.10;;;;;;10459103;28;20140;-46
2024/01/31 20:41:51;;;;;;;3.58;2.33;;;23.80;37.90;;;;;;10464981;28;20052;-50
2024/01/31 20:46:54;;;;;;;3.33;2.20;;;23.60;38.30;;;;;;10458769;28;20698;-50
2024/01/31 20:51:56;;;;;;;4.93;2.10;;;23.40;39.30;;;;;;10460936;28;20102;-48
2024/01/31 20:56:58;;;;;;;2.95;1.50;;;23.30;38.30;;;;;;10449186;28;20149;-47
2024/01/31 21:02:01;;;;;;;2.17;1.73;;;23.30;38.60;;;;;;10465239;28;20045;-49
2024/01/31 21:07:02;;;;;;;2.95;1.60;;;23.10;38.60;;;;;;10448700;28;20132;-46
2024/01/31 21:12:05;;;;;;;3.13;1.70;;;23.00;38.90;;;;;;10454018;28;20053;-48
2024/01/31 21:17:07;;;;;;;4.13;1.60;;;23.00;38.90;;;;;;10465776;28;20495;-48
2024/01/31 21:22:09;;;;;;;2.53;1.50;;;22.80;39.80;;;;;;10459107;28;20053;-48
2024/01/31 21:27:12;;;;;;;2.83;1.50;;;22.90;39.60;;;;;;10459754;28;20083;-50
2024/01/31 21:32:15;;;;;;;3.70;1.60;;;22.70;39.60;;;;;;10459989;28;20072;-47
2024/01/31 21:37:17;;;;;;;2.00;1.23;;;22.70;39.80;;;;;;10457952;28;20053;-46
2024/01/31 21:42:18;;;;;;;3.28;1.38;;;22.60;39.80;;;;;;10454062;28;20048;-48
2024/01/31 21:47:21;;;;;;;1.88;1.40;;;22.50;39.90;;;;;;10447638;28;20126;-48
2024/01/31 21:52:23;;;;;;;1.77;1.33;;;22.30;40.10;;;;;;10465537;28;20465;-46
2024/01/31 21:57:24;;;;;;;1.75;1.00;;;22.30;40.10;;;;;;10459662;28;20152;-50
2024/01/31 22:02:29;;;;;;;1.70;1.30;;;22.30;40.20;;;;;;10457173;28;20081;-47
2024/01/31 22:07:30;;;;;;;2.50;1.30;;;22.20;40.10;;;;;;10457208;28;20048;-47
2024/01/31 22:12:33;;;;;;;2.45;1.25;;;22.10;40.20;;;;;;10450916;28;20045;-48
2024/01/31 22:17:36;;;;;;;1.70;1.10;;;22.10;40.10;;;;;;10463923;28;20053;-49
2024/01/31 22:22:37;;;;;;;2.28;1.17;;;22.00;40.30;;;;;;10449872;28;20459;-48
2024/01/31 22:27:39;;;;;;;2.15;1.17;;;22.00;40.40;;;;;;10461246;28;20487;-45
2024/01/31 22:32:42;;;;;;;1.33;1.00;;;21.80;40.40;;;;;;10465391;28;20059;-47
2024/01/31 22:37:44;;;;;;;1.10;0.80;;;22.00;40.40;;;;;;10457376;28;20143;-45
2024/01/31 22:42:45;;;;;;;4.03;1.52;;;21.70;40.50;;;;;;10459419;28;20045;-45
2024/01/31 22:47:48;;;;;;;3.25;1.08;;;21.80;40.30;;;;;;10469479;28;20063;-47
2024/01/31 22:52:50;;;;;;;1.67;1.13;;;21.70;40.30;;;;;;10457305;28;20053;-47
2024/01/31 22:57:52;;;;;;;1.40;0.93;;;21.70;40.00;;;;;;10458531;28;20571;-55
2024/01/31 23:02:54;;;;;;;1.67;0.90;;;21.70;40.10;;;;;;10459719;28;20051;-44
2024/01/31 23:07:56;;;;;;;2.70;1.30;;;21.70;40.00;;;;;;10465031;28;20048;-45
2024/01/31 23:12:58;;;;;;;1.73;1.00;;;21.60;40.00;;;;;;10465310;28;20050;-45
2024/01/31 23:18:03;;;;;;;1.50;1.00;;;21.50;40.10;;;;;;10461741;28;20051;-48
2024/01/31 23:23:05;;;;;;;1.40;0.90;;;21.50;40.10;;;;;;10464865;28;20056;-44
2024/01/31 23:28:07;;;;;;;1.95;1.27;;;21.40;40.10;;;;;;10454882;28;20045;-45
2024/01/31 23:33:10;;;;;;;1.23;0.90;;;21.40;40.10;;;;;;10463684;28;20055;-48
2024/01/31 23:38:12;;;;;;;2.22;1.17;;;21.40;39.90;;;;;;10461840;28;20453;-44
2024/01/31 23:43:14;;;;;;;1.77;0.98;;;21.30;40.00;;;;;;10455987;28;20041;-47
2024/01/31 23:48:16;;;;;;;2.08;0.98;;;21.40;39.80;;;;;;10460387;28;20141;-44
2024/01/31 23:53:18;;;;;;;1.52;1.10;;;21.40;39.60;;;;;;10464528;28;20044;-46
2024/01/31 23:58:20;;;;;;;1.73;1.20;;;21.30;39.80;;;;;;10468044;28;20044;-45
